sensor_id;sensor_type;location;lat;lon;timestamp;P1;durP1;ratioP1;P2;durP2;ratioP2
76196;SDS011;64974;53.144;17.962;2023-04-24T00:02:40;10.70;;;7.18;;
76196;SDS011;64974;53.144;17.962;2023-04-24T00:05:06;11.18;;;6.93;;
76196;SDS011;64974;53.144;17.962;2023-04-24T00:07:32;10.73;;;6.95;;
76196;SDS011;64974;53.144;17.962;2023-04-24T00:09:58;11.05;;;7.22;;
76196;SDS011;64974;53.144;17.962;2023-04-24T00:12:24;13.70;;;8.45;;
76196;SDS011;64974;53.144;17.962;2023-04-24T00:14:49;15.75;;;8.73;;
76196;SDS011;64974;53.144;17.962;2023-04-24T00:17:15;14.65;;;8.25;;
76196;SDS011;64974;53.144;17.962;2023-04-24T00:19:40;12.40;;;8.30;;
76196;SDS011;64974;53.144;17.962;2023-04-24T00:22:05;14.20;;;7.15;;
76196;SDS011;64974;53.144;17.962;2023-04-24T00:24:31;14.50;;;8.68;;
76196;SDS011;64974;53.144;17.962;2023-04-24T00:26:56;11.52;;;8.02;;
76196;SDS011;64974;53.144;17.962;2023-04-24T00:29:22;11.50;;;7.85;;
76196;SDS011;64974;53.144;17.962;2023-04-24T00:31:47;12.65;;;7.50;;
76196;SDS011;64974;53.144;17.962;2023-04-24T00:34:12;11.13;;;8.00;;
76196;SDS011;64974;53.144;17.962;2023-04-24T00:36:38;12.95;;;8.23;;
76196;SDS011;64974;53.144;17.962;2023-04-24T00:39:03;14.40;;;8.45;;
76196;SDS011;64974;53.144;17.962;2023-04-24T00:41:29;17.70;;;9.75;;
76196;SDS011;64974;53.144;17.962;2023-04-24T00:43:54;12.48;;;9.40;;
76196;SDS011;64974;53.144;17.962;2023-04-24T00:46:20;12.63;;;9.45;;
76196;SDS011;64974;53.144;17.962;2023-04-24T00:48:46;12.55;;;8.35;;
76196;SDS011;64974;53.144;17.962;2023-04-24T00:51:11;12.43;;;7.90;;
76196;SDS011;64974;53.144;17.962;2023-04-24T00:53:37;15.07;;;10.25;;
76196;SDS011;64974;53.144;17.962;2023-04-24T00:56:02;14.90;;;8.40;;
76196;SDS011;64974;53.144;17.962;2023-04-24T00:58:28;14.73;;;9.23;;
76196;SDS011;64974;53.144;17.962;2023-04-24T01:00:54;13.88;;;9.18;;
76196;SDS011;64974;53.144;17.962;2023-04-24T01:05:55;14.27;;;9.20;;
76196;SDS011;64974;53.144;17.962;2023-04-24T01:08:21;14.60;;;9.75;;
76196;SDS011;64974;53.144;17.962;2023-04-24T01:10:52;15.55;;;9.20;;
76196;SDS011;64974;53.144;17.962;2023-04-24T01:13:18;15.13;;;9.90;;
76196;SDS011;64974;53.144;17.962;2023-04-24T01:15:44;17.05;;;9.63;;
76196;SDS011;64974;53.144;17.962;2023-04-24T01:18:09;15.07;;;9.15;;
76196;SDS011;64974;53.144;17.962;2023-04-24T01:23:01;14.52;;;8.38;;
76196;SDS011;64974;53.144;17.962;2023-04-24T01:27:52;13.87;;;8.90;;
76196;SDS011;64974;53.144;17.962;2023-04-24T01:30:18;12.52;;;8.07;;
76196;SDS011;64974;53.144;17.962;2023-04-24T01:32:43;13.57;;;8.98;;
76196;SDS011;64974;53.144;17.962;2023-04-24T01:37:35;21.65;;;15.38;;
76196;SDS011;64974;53.144;17.962;2023-04-24T01:40:02;33.78;;;25.67;;
76196;SDS011;64974;53.144;17.962;2023-04-24T01:42:28;50.78;;;40.92;;
76196;SDS011;64974;53.144;17.962;2023-04-24T01:44:54;57.75;;;44.35;;
76196;SDS011;64974;53.144;17.962;2023-04-24T01:47:19;49.78;;;37.83;;
76196;SDS011;64974;53.144;17.962;2023-04-24T01:49:45;36.75;;;29.70;;
76196;SDS011;64974;53.144;17.962;2023-04-24T01:52:10;29.02;;;22.80;;
76196;SDS011;64974;53.144;17.962;2023-04-24T01:54:36;32.40;;;25.73;;
76196;SDS011;64974;53.144;17.962;2023-04-24T01:57:01;35.17;;;27.60;;
76196;SDS011;64974;53.144;17.962;2023-04-24T01:59:27;60.03;;;37.08;;
76196;SDS011;64974;53.144;17.962;2023-04-24T02:01:53;59.70;;;37.67;;
76196;SDS011;64974;53.144;17.962;2023-04-24T02:04:18;64.40;;;38.42;;
76196;SDS011;64974;53.144;17.962;2023-04-24T02:06:44;45.53;;;26.73;;
76196;SDS011;64974;53.144;17.962;2023-04-24T02:09:09;35.90;;;23.20;;
76196;SDS011;64974;53.144;17.962;2023-04-24T02:11:35;24.67;;;15.55;;
76196;SDS011;64974;53.144;17.962;2023-04-24T02:14:01;23.33;;;15.15;;
76196;SDS011;64974;53.144;17.962;2023-04-24T02:16:27;22.83;;;15.18;;
76196;SDS011;64974;53.144;17.962;2023-04-24T02:18:55;24.45;;;17.83;;
76196;SDS011;64974;53.144;17.962;2023-04-24T02:21:20;22.02;;;16.17;;
76196;SDS011;64974;53.144;17.962;2023-04-24T02:23:45;26.92;;;17.38;;
76196;SDS011;64974;53.144;17.962;2023-04-24T02:26:11;22.50;;;15.63;;
76196;SDS011;64974;53.144;17.962;2023-04-24T02:28:36;17.85;;;11.70;;
76196;SDS011;64974;53.144;17.962;2023-04-24T02:31:01;16.08;;;9.77;;
76196;SDS011;64974;53.144;17.962;2023-04-24T02:35:52;14.47;;;8.47;;
76196;SDS011;64974;53.144;17.962;2023-04-24T02:38:17;14.02;;;9.20;;
76196;SDS011;64974;53.144;17.962;2023-04-24T02:40:43;16.00;;;9.38;;
76196;SDS011;64974;53.144;17.962;2023-04-24T02:43:08;16.45;;;9.25;;
76196;SDS011;64974;53.144;17.962;2023-04-24T02:45:34;13.43;;;8.27;;
76196;SDS011;64974;53.144;17.962;2023-04-24T02:47:59;14.40;;;8.63;;
76196;SDS011;64974;53.144;17.962;2023-04-24T02:50:25;14.48;;;9.82;;
76196;SDS011;64974;53.144;17.962;2023-04-24T02:52:50;14.43;;;9.45;;
76196;SDS011;64974;53.144;17.962;2023-04-24T02:55:15;14.15;;;9.60;;
76196;SDS011;64974;53.144;17.962;2023-04-24T02:57:41;14.85;;;10.25;;
76196;SDS011;64974;53.144;17.962;2023-04-24T03:00:06;14.77;;;9.48;;
76196;SDS011;64974;53.144;17.962;2023-04-24T03:02:32;15.38;;;9.93;;
76196;SDS011;64974;53.144;17.962;2023-04-24T03:04:57;14.15;;;9.77;;
76196;SDS011;64974;53.144;17.962;2023-04-24T03:07:22;14.98;;;9.80;;
76196;SDS011;64974;53.144;17.962;2023-04-24T03:12:14;14.87;;;10.00;;
76196;SDS011;64974;53.144;17.962;2023-04-24T03:14:39;14.50;;;9.98;;
76196;SDS011;64974;53.144;17.962;2023-04-24T03:17:04;15.38;;;9.68;;
76196;SDS011;64974;53.144;17.962;2023-04-24T03:19:30;14.23;;;10.30;;
76196;SDS011;64974;53.144;17.962;2023-04-24T03:21:55;17.05;;;10.20;;
76196;SDS011;64974;53.144;17.962;2023-04-24T03:24:20;18.40;;;10.18;;
76196;SDS011;64974;53.144;17.962;2023-04-24T03:26:46;15.80;;;10.15;;
76196;SDS011;64974;53.144;17.962;2023-04-24T03:29:11;17.90;;;10.13;;
76196;SDS011;64974;53.144;17.962;2023-04-24T03:31:36;17.10;;;9.73;;
76196;SDS011;64974;53.144;17.962;2023-04-24T03:34:02;16.70;;;9.88;;
76196;SDS011;64974;53.144;17.962;2023-04-24T03:36:27;17.43;;;11.27;;
76196;SDS011;64974;53.144;17.962;2023-04-24T03:38:52;17.35;;;10.85;;
76196;SDS011;64974;53.144;17.962;2023-04-24T03:41:18;17.40;;;11.45;;
76196;SDS011;64974;53.144;17.962;2023-04-24T03:43:43;19.50;;;11.70;;
76196;SDS011;64974;53.144;17.962;2023-04-24T03:46:09;21.67;;;11.68;;
76196;SDS011;64974;53.144;17.962;2023-04-24T03:48:34;20.75;;;11.30;;
76196;SDS011;64974;53.144;17.962;2023-04-24T03:51:00;17.73;;;10.13;;
76196;SDS011;64974;53.144;17.962;2023-04-24T03:53:25;18.85;;;11.20;;
76196;SDS011;64974;53.144;17.962;2023-04-24T03:55:51;17.33;;;10.90;;
76196;SDS011;64974;53.144;17.962;2023-04-24T03:58:17;17.58;;;11.10;;
76196;SDS011;64974;53.144;17.962;2023-04-24T04:00:43;18.47;;;11.20;;
76196;SDS011;64974;53.144;17.962;2023-04-24T04:03:09;16.60;;;9.65;;
76196;SDS011;64974;53.144;17.962;2023-04-24T04:05:34;19.13;;;10.80;;
76196;SDS011;64974;53.144;17.962;2023-04-24T04:10:25;18.13;;;11.07;;
76196;SDS011;64974;53.144;17.962;2023-04-24T04:12:50;19.50;;;11.38;;
76196;SDS011;64974;53.144;17.962;2023-04-24T04:15:15;16.75;;;10.32;;
76196;SDS011;64974;53.144;17.962;2023-04-24T04:17:41;18.88;;;11.45;;
76196;SDS011;64974;53.144;17.962;2023-04-24T04:20:06;21.67;;;11.18;;
76196;SDS011;64974;53.144;17.962;2023-04-24T04:22:34;18.75;;;10.60;;
76196;SDS011;64974;53.144;17.962;2023-04-24T04:25:00;18.33;;;12.13;;
76196;SDS011;64974;53.144;17.962;2023-04-24T04:27:26;18.13;;;11.48;;
76196;SDS011;64974;53.144;17.962;2023-04-24T04:29:51;17.77;;;11.45;;
76196;SDS011;64974;53.144;17.962;2023-04-24T04:32:17;20.33;;;12.10;;
76196;SDS011;64974;53.144;17.962;2023-04-24T04:37:10;18.60;;;11.07;;
76196;SDS011;64974;53.144;17.962;2023-04-24T04:39:36;19.77;;;12.23;;
76196;SDS011;64974;53.144;17.962;2023-04-24T04:42:01;22.45;;;12.95;;
76196;SDS011;64974;53.144;17.962;2023-04-24T04:44:26;19.55;;;12.52;;
76196;SDS011;64974;53.144;17.962;2023-04-24T04:46:52;21.48;;;13.05;;
76196;SDS011;64974;53.144;17.962;2023-04-24T04:49:18;20.67;;;13.35;;
76196;SDS011;64974;53.144;17.962;2023-04-24T04:51:46;20.90;;;11.98;;
76196;SDS011;64974;53.144;17.962;2023-04-24T04:54:11;22.40;;;13.27;;
76196;SDS011;64974;53.144;17.962;2023-04-24T04:56:37;26.10;;;15.20;;
76196;SDS011;64974;53.144;17.962;2023-04-24T04:59:02;25.88;;;14.40;;
76196;SDS011;64974;53.144;17.962;2023-04-24T05:01:28;23.75;;;15.43;;
76196;SDS011;64974;53.144;17.962;2023-04-24T05:03:53;25.33;;;14.40;;
76196;SDS011;64974;53.144;17.962;2023-04-24T05:06:18;22.95;;;13.30;;
76196;SDS011;64974;53.144;17.962;2023-04-24T05:08:44;23.98;;;13.00;;
76196;SDS011;64974;53.144;17.962;2023-04-24T05:11:09;24.67;;;12.93;;
76196;SDS011;64974;53.144;17.962;2023-04-24T05:16:00;21.15;;;12.73;;
76196;SDS011;64974;53.144;17.962;2023-04-24T05:20:50;21.43;;;14.03;;
76196;SDS011;64974;53.144;17.962;2023-04-24T05:25:41;20.10;;;12.77;;
76196;SDS011;64974;53.144;17.962;2023-04-24T05:30:32;19.90;;;12.87;;
76196;SDS011;64974;53.144;17.962;2023-04-24T05:35:22;22.30;;;12.13;;
76196;SDS011;64974;53.144;17.962;2023-04-24T05:40:13;24.00;;;13.67;;
76196;SDS011;64974;53.144;17.962;2023-04-24T05:45:04;20.95;;;11.85;;
76196;SDS011;64974;53.144;17.962;2023-04-24T05:47:30;17.45;;;11.52;;
76196;SDS011;64974;53.144;17.962;2023-04-24T05:49:55;20.13;;;12.53;;
76196;SDS011;64974;53.144;17.962;2023-04-24T05:52:21;17.70;;;11.03;;
76196;SDS011;64974;53.144;17.962;2023-04-24T05:54:46;19.10;;;10.98;;
76196;SDS011;64974;53.144;17.962;2023-04-24T05:57:11;18.25;;;11.38;;
76196;SDS011;64974;53.144;17.962;2023-04-24T06:02:03;18.58;;;10.52;;
76196;SDS011;64974;53.144;17.962;2023-04-24T06:04:29;17.27;;;11.07;;
76196;SDS011;64974;53.144;17.962;2023-04-24T06:06:54;19.13;;;11.90;;
76196;SDS011;64974;53.144;17.962;2023-04-24T06:09:24;21.67;;;11.48;;
76196;SDS011;64974;53.144;17.962;2023-04-24T06:11:50;18.60;;;11.45;;
76196;SDS011;64974;53.144;17.962;2023-04-24T06:14:17;17.65;;;12.35;;
76196;SDS011;64974;53.144;17.962;2023-04-24T06:19:08;19.33;;;11.30;;
76196;SDS011;64974;53.144;17.962;2023-04-24T06:23:59;16.87;;;11.23;;
76196;SDS011;64974;53.144;17.962;2023-04-24T06:28:51;16.02;;;10.27;;
76196;SDS011;64974;53.144;17.962;2023-04-24T06:33:42;15.43;;;9.93;;
76196;SDS011;64974;53.144;17.962;2023-04-24T06:36:08;20.05;;;12.35;;
76196;SDS011;64974;53.144;17.962;2023-04-24T06:40:59;19.45;;;10.60;;
76196;SDS011;64974;53.144;17.962;2023-04-24T06:45:49;16.93;;;10.33;;
76196;SDS011;64974;53.144;17.962;2023-04-24T06:50:40;14.17;;;8.87;;
76196;SDS011;64974;53.144;17.962;2023-04-24T06:55:30;15.53;;;9.20;;
76196;SDS011;64974;53.144;17.962;2023-04-24T07:00:21;19.70;;;8.60;;
76196;SDS011;64974;53.144;17.962;2023-04-24T07:02:49;18.92;;;9.50;;
76196;SDS011;64974;53.144;17.962;2023-04-24T07:07:40;13.50;;;8.20;;
76196;SDS011;64974;53.144;17.962;2023-04-24T07:12:30;13.73;;;9.00;;
76196;SDS011;64974;53.144;17.962;2023-04-24T07:14:57;14.05;;;7.82;;
76196;SDS011;64974;53.144;17.962;2023-04-24T07:19:47;12.07;;;7.43;;
76196;SDS011;64974;53.144;17.962;2023-04-24T07:24:42;10.80;;;6.88;;
76196;SDS011;64974;53.144;17.962;2023-04-24T07:27:08;12.23;;;7.68;;
76196;SDS011;64974;53.144;17.962;2023-04-24T07:31:58;12.40;;;7.20;;
76196;SDS011;64974;53.144;17.962;2023-04-24T07:36:49;12.50;;;6.27;;
76196;SDS011;64974;53.144;17.962;2023-04-24T07:41:40;10.53;;;6.70;;
76196;SDS011;64974;53.144;17.962;2023-04-24T07:46:31;9.23;;;5.17;;
76196;SDS011;64974;53.144;17.962;2023-04-24T07:51:21;13.00;;;6.35;;
76196;SDS011;64974;53.144;17.962;2023-04-24T07:56:12;11.63;;;6.47;;
76196;SDS011;64974;53.144;17.962;2023-04-24T08:01:03;10.93;;;5.87;;
76196;SDS011;64974;53.144;17.962;2023-04-24T08:05:53;13.07;;;6.20;;
76196;SDS011;64974;53.144;17.962;2023-04-24T08:10:45;9.60;;;6.05;;
76196;SDS011;64974;53.144;17.962;2023-04-24T08:15:36;8.85;;;5.35;;
76196;SDS011;64974;53.144;17.962;2023-04-24T08:20:27;11.57;;;6.03;;
76196;SDS011;64974;53.144;17.962;2023-04-24T08:25:17;7.13;;;5.23;;
76196;SDS011;64974;53.144;17.962;2023-04-24T08:27:44;7.45;;;4.43;;
76196;SDS011;64974;53.144;17.962;2023-04-24T08:32:35;9.13;;;5.80;;
76196;SDS011;64974;53.144;17.962;2023-04-24T08:35:01;10.63;;;5.88;;
76196;SDS011;64974;53.144;17.962;2023-04-24T08:39:52;10.00;;;4.82;;
76196;SDS011;64974;53.144;17.962;2023-04-24T08:42:18;8.82;;;5.07;;
76196;SDS011;64974;53.144;17.962;2023-04-24T08:44:43;11.55;;;5.10;;
76196;SDS011;64974;53.144;17.962;2023-04-24T08:49:36;12.60;;;5.60;;
76196;SDS011;64974;53.144;17.962;2023-04-24T08:52:01;9.85;;;5.43;;
76196;SDS011;64974;53.144;17.962;2023-04-24T08:56:53;7.97;;;5.17;;
76196;SDS011;64974;53.144;17.962;2023-04-24T08:59:19;10.13;;;5.95;;
76196;SDS011;64974;53.144;17.962;2023-04-24T09:01:47;7.68;;;5.22;;
76196;SDS011;64974;53.144;17.962;2023-04-24T09:04:13;6.63;;;4.75;;
76196;SDS011;64974;53.144;17.962;2023-04-24T09:06:40;6.40;;;5.38;;
76196;SDS011;64974;53.144;17.962;2023-04-24T09:11:31;7.97;;;4.87;;
76196;SDS011;64974;53.144;17.962;2023-04-24T09:13:57;8.13;;;5.05;;
76196;SDS011;64974;53.144;17.962;2023-04-24T09:16:24;9.07;;;4.95;;
76196;SDS011;64974;53.144;17.962;2023-04-24T09:18:50;7.15;;;5.05;;
76196;SDS011;64974;53.144;17.962;2023-04-24T09:23:41;7.07;;;5.17;;
76196;SDS011;64974;53.144;17.962;2023-04-24T09:28:39;8.60;;;4.70;;
76196;SDS011;64974;53.144;17.962;2023-04-24T09:31:09;9.55;;;4.78;;
76196;SDS011;64974;53.144;17.962;2023-04-24T09:33:37;7.95;;;5.70;;
76196;SDS011;64974;53.144;17.962;2023-04-24T09:36:03;8.27;;;5.35;;
76196;SDS011;64974;53.144;17.962;2023-04-24T09:41:01;10.10;;;5.70;;
76196;SDS011;64974;53.144;17.962;2023-04-24T09:43:28;8.18;;;4.90;;
76196;SDS011;64974;53.144;17.962;2023-04-24T09:45:58;8.80;;;5.03;;
76196;SDS011;64974;53.144;17.962;2023-04-24T09:48:30;7.70;;;4.65;;
76196;SDS011;64974;53.144;17.962;2023-04-24T09:50:56;8.50;;;5.40;;
76196;SDS011;64974;53.144;17.962;2023-04-24T09:53:25;9.73;;;5.25;;
76196;SDS011;64974;53.144;17.962;2023-04-24T09:55:51;7.93;;;5.20;;
76196;SDS011;64974;53.144;17.962;2023-04-24T09:58:18;7.32;;;5.13;;
76196;SDS011;64974;53.144;17.962;2023-04-24T10:03:09;7.50;;;5.05;;
76196;SDS011;64974;53.144;17.962;2023-04-24T10:05:35;8.20;;;5.20;;
76196;SDS011;64974;53.144;17.962;2023-04-24T10:08:06;8.30;;;5.10;;
76196;SDS011;64974;53.144;17.962;2023-04-24T10:10:33;7.20;;;5.00;;
76196;SDS011;64974;53.144;17.962;2023-04-24T10:13:00;9.10;;;5.35;;
76196;SDS011;64974;53.144;17.962;2023-04-24T10:15:26;7.72;;;5.45;;
76196;SDS011;64974;53.144;17.962;2023-04-24T10:20:21;9.17;;;5.23;;
76196;SDS011;64974;53.144;17.962;2023-04-24T10:22:49;7.15;;;5.10;;
76196;SDS011;64974;53.144;17.962;2023-04-24T10:25:19;9.55;;;5.18;;
76196;SDS011;64974;53.144;17.962;2023-04-24T10:27:46;7.45;;;5.38;;
76196;SDS011;64974;53.144;17.962;2023-04-24T10:30:12;8.60;;;5.38;;
76196;SDS011;64974;53.144;17.962;2023-04-24T10:32:38;8.13;;;4.95;;
76196;SDS011;64974;53.144;17.962;2023-04-24T10:35:03;8.75;;;5.57;;
76196;SDS011;64974;53.144;17.962;2023-04-24T10:37:29;8.07;;;5.30;;
76196;SDS011;64974;53.144;17.962;2023-04-24T10:40:00;8.52;;;4.97;;
76196;SDS011;64974;53.144;17.962;2023-04-24T10:42:26;8.25;;;5.65;;
76196;SDS011;64974;53.144;17.962;2023-04-24T10:44:52;7.85;;;4.80;;
76196;SDS011;64974;53.144;17.962;2023-04-24T10:47:18;9.18;;;5.57;;
76196;SDS011;64974;53.144;17.962;2023-04-24T10:49:43;10.50;;;5.45;;
76196;SDS011;64974;53.144;17.962;2023-04-24T10:52:09;8.68;;;5.20;;
76196;SDS011;64974;53.144;17.962;2023-04-24T10:54:35;9.02;;;5.50;;
76196;SDS011;64974;53.144;17.962;2023-04-24T10:59:47;10.48;;;5.40;;
76196;SDS011;64974;53.144;17.962;2023-04-24T11:02:17;9.27;;;5.45;;
76196;SDS011;64974;53.144;17.962;2023-04-24T11:04:43;7.38;;;5.30;;
76196;SDS011;64974;53.144;17.962;2023-04-24T11:07:09;6.93;;;4.85;;
76196;SDS011;64974;53.144;17.962;2023-04-24T11:09:35;8.43;;;5.53;;
76196;SDS011;64974;53.144;17.962;2023-04-24T11:12:05;9.05;;;5.82;;
76196;SDS011;64974;53.144;17.962;2023-04-24T11:17:44;9.60;;;5.65;;
76196;SDS011;64974;53.144;17.962;2023-04-24T11:20:09;6.93;;;5.45;;
76196;SDS011;64974;53.144;17.962;2023-04-24T11:22:37;9.05;;;5.57;;
76196;SDS011;64974;53.144;17.962;2023-04-24T11:25:05;9.13;;;5.85;;
76196;SDS011;64974;53.144;17.962;2023-04-24T11:27:38;11.35;;;5.80;;
76196;SDS011;64974;53.144;17.962;2023-04-24T11:30:05;10.68;;;6.30;;
76196;SDS011;64974;53.144;17.962;2023-04-24T11:35:05;11.27;;;7.85;;
76196;SDS011;64974;53.144;17.962;2023-04-24T11:37:47;12.00;;;7.53;;
76196;SDS011;64974;53.144;17.962;2023-04-24T11:40:14;9.88;;;5.07;;
76196;SDS011;64974;53.144;17.962;2023-04-24T11:42:42;6.63;;;5.07;;
76196;SDS011;64974;53.144;17.962;2023-04-24T11:45:09;9.55;;;5.20;;
76196;SDS011;64974;53.144;17.962;2023-04-24T11:47:36;8.95;;;4.90;;
76196;SDS011;64974;53.144;17.962;2023-04-24T11:50:01;8.18;;;4.93;;
76196;SDS011;64974;53.144;17.962;2023-04-24T11:52:28;8.35;;;5.38;;
76196;SDS011;64974;53.144;17.962;2023-04-24T11:54:54;7.97;;;5.50;;
76196;SDS011;64974;53.144;17.962;2023-04-24T11:57:20;9.23;;;5.63;;
76196;SDS011;64974;53.144;17.962;2023-04-24T11:59:51;9.07;;;5.55;;
76196;SDS011;64974;53.144;17.962;2023-04-24T12:02:20;10.13;;;5.78;;
76196;SDS011;64974;53.144;17.962;2023-04-24T12:07:14;9.68;;;5.32;;
76196;SDS011;64974;53.144;17.962;2023-04-24T12:09:43;6.95;;;5.40;;
76196;SDS011;64974;53.144;17.962;2023-04-24T12:12:10;7.57;;;5.85;;
76196;SDS011;64974;53.144;17.962;2023-04-24T12:14:49;9.38;;;5.72;;
76196;SDS011;64974;53.144;17.962;2023-04-24T12:17:17;9.93;;;5.88;;
76196;SDS011;64974;53.144;17.962;2023-04-24T12:19:46;8.40;;;4.57;;
76196;SDS011;64974;53.144;17.962;2023-04-24T12:22:12;6.88;;;4.30;;
76196;SDS011;64974;53.144;17.962;2023-04-24T12:27:31;7.22;;;5.20;;
76196;SDS011;64974;53.144;17.962;2023-04-24T12:29:58;8.20;;;5.30;;
76196;SDS011;64974;53.144;17.962;2023-04-24T12:32:24;10.30;;;5.63;;
76196;SDS011;64974;53.144;17.962;2023-04-24T12:34:53;8.35;;;5.70;;
76196;SDS011;64974;53.144;17.962;2023-04-24T12:37:19;8.88;;;5.68;;
76196;SDS011;64974;53.144;17.962;2023-04-24T12:39:46;8.88;;;6.43;;
76196;SDS011;64974;53.144;17.962;2023-04-24T12:42:27;7.40;;;5.43;;
76196;SDS011;64974;53.144;17.962;2023-04-24T12:44:57;8.70;;;5.88;;
76196;SDS011;64974;53.144;17.962;2023-04-24T12:47:24;8.70;;;5.88;;
76196;SDS011;64974;53.144;17.962;2023-04-24T12:49:50;8.38;;;6.57;;
76196;SDS011;64974;53.144;17.962;2023-04-24T12:52:17;11.77;;;6.32;;
76196;SDS011;64974;53.144;17.962;2023-04-24T12:54:44;9.10;;;6.70;;
76196;SDS011;64974;53.144;17.962;2023-04-24T12:57:10;9.18;;;6.65;;
76196;SDS011;64974;53.144;17.962;2023-04-24T12:59:35;9.45;;;7.00;;
76196;SDS011;64974;53.144;17.962;2023-04-24T13:02:00;11.23;;;6.40;;
76196;SDS011;64974;53.144;17.962;2023-04-24T13:04:26;11.05;;;6.53;;
76196;SDS011;64974;53.144;17.962;2023-04-24T13:06:51;8.18;;;5.78;;
76196;SDS011;64974;53.144;17.962;2023-04-24T13:09:16;8.90;;;5.93;;
76196;SDS011;64974;53.144;17.962;2023-04-24T13:11:42;10.70;;;6.70;;
76196;SDS011;64974;53.144;17.962;2023-04-24T13:14:07;10.80;;;6.47;;
76196;SDS011;64974;53.144;17.962;2023-04-24T13:16:32;10.05;;;6.43;;
76196;SDS011;64974;53.144;17.962;2023-04-24T13:18:58;9.98;;;6.55;;
76196;SDS011;64974;53.144;17.962;2023-04-24T13:21:23;9.05;;;5.80;;
76196;SDS011;64974;53.144;17.962;2023-04-24T13:23:48;11.80;;;5.93;;
76196;SDS011;64974;53.144;17.962;2023-04-24T13:26:14;9.20;;;5.68;;
76196;SDS011;64974;53.144;17.962;2023-04-24T13:28:39;7.97;;;5.55;;
76196;SDS011;64974;53.144;17.962;2023-04-24T13:31:05;7.50;;;4.82;;
76196;SDS011;64974;53.144;17.962;2023-04-24T13:33:31;9.45;;;5.40;;
76196;SDS011;64974;53.144;17.962;2023-04-24T13:35:56;8.05;;;5.30;;
76196;SDS011;64974;53.144;17.962;2023-04-24T13:38:22;7.15;;;5.20;;
76196;SDS011;64974;53.144;17.962;2023-04-24T13:40:48;7.65;;;5.05;;
76196;SDS011;64974;53.144;17.962;2023-04-24T13:43:13;8.63;;;5.40;;
76196;SDS011;64974;53.144;17.962;2023-04-24T13:45:39;6.63;;;5.00;;
76196;SDS011;64974;53.144;17.962;2023-04-24T13:48:04;6.28;;;4.03;;
76196;SDS011;64974;53.144;17.962;2023-04-24T13:50:29;5.32;;;3.72;;
76196;SDS011;64974;53.144;17.962;2023-04-24T13:52:55;7.13;;;4.53;;
76196;SDS011;64974;53.144;17.962;2023-04-24T13:55:22;5.15;;;3.88;;
76196;SDS011;64974;53.144;17.962;2023-04-24T13:57:47;6.47;;;5.03;;
76196;SDS011;64974;53.144;17.962;2023-04-24T14:00:12;7.45;;;4.63;;
76196;SDS011;64974;53.144;17.962;2023-04-24T14:02:38;8.88;;;5.70;;
76196;SDS011;64974;53.144;17.962;2023-04-24T14:05:04;11.55;;;5.45;;
76196;SDS011;64974;53.144;17.962;2023-04-24T14:07:31;8.75;;;6.40;;
76196;SDS011;64974;53.144;17.962;2023-04-24T14:09:56;10.40;;;6.60;;
76196;SDS011;64974;53.144;17.962;2023-04-24T14:12:22;7.80;;;5.45;;
76196;SDS011;64974;53.144;17.962;2023-04-24T14:14:47;8.30;;;6.25;;
76196;SDS011;64974;53.144;17.962;2023-04-24T14:17:15;8.32;;;5.63;;
76196;SDS011;64974;53.144;17.962;2023-04-24T14:19:41;8.40;;;5.85;;
76196;SDS011;64974;53.144;17.962;2023-04-24T14:22:06;9.25;;;5.85;;
76196;SDS011;64974;53.144;17.962;2023-04-24T14:24:31;8.18;;;4.90;;
76196;SDS011;64974;53.144;17.962;2023-04-24T14:26:57;6.82;;;5.03;;
76196;SDS011;64974;53.144;17.962;2023-04-24T14:29:22;6.55;;;5.05;;
76196;SDS011;64974;53.144;17.962;2023-04-24T14:31:47;6.28;;;4.70;;
76196;SDS011;64974;53.144;17.962;2023-04-24T14:34:13;6.40;;;4.30;;
76196;SDS011;64974;53.144;17.962;2023-04-24T14:36:38;5.28;;;4.07;;
76196;SDS011;64974;53.144;17.962;2023-04-24T14:39:04;7.85;;;3.80;;
76196;SDS011;64974;53.144;17.962;2023-04-24T14:41:31;5.80;;;3.22;;
76196;SDS011;64974;53.144;17.962;2023-04-24T14:43:58;8.38;;;3.83;;
76196;SDS011;64974;53.144;17.962;2023-04-24T14:46:23;5.45;;;3.92;;
76196;SDS011;64974;53.144;17.962;2023-04-24T14:48:49;5.63;;;3.85;;
76196;SDS011;64974;53.144;17.962;2023-04-24T14:51:14;6.72;;;4.45;;
76196;SDS011;64974;53.144;17.962;2023-04-24T14:53:40;6.18;;;3.85;;
76196;SDS011;64974;53.144;17.962;2023-04-24T14:56:06;6.03;;;3.55;;
76196;SDS011;64974;53.144;17.962;2023-04-24T14:58:31;6.25;;;4.07;;
76196;SDS011;64974;53.144;17.962;2023-04-24T15:00:57;7.70;;;3.60;;
76196;SDS011;64974;53.144;17.962;2023-04-24T15:03:23;5.63;;;3.30;;
76196;SDS011;64974;53.144;17.962;2023-04-24T15:05:48;5.03;;;3.25;;
76196;SDS011;64974;53.144;17.962;2023-04-24T15:08:14;6.15;;;3.63;;
76196;SDS011;64974;53.144;17.962;2023-04-24T15:10:39;4.72;;;3.20;;
76196;SDS011;64974;53.144;17.962;2023-04-24T15:13:04;5.85;;;3.30;;
76196;SDS011;64974;53.144;17.962;2023-04-24T15:15:30;8.32;;;3.45;;
76196;SDS011;64974;53.144;17.962;2023-04-24T15:17:55;3.92;;;2.60;;
76196;SDS011;64974;53.144;17.962;2023-04-24T15:20:20;4.50;;;2.95;;
76196;SDS011;64974;53.144;17.962;2023-04-24T15:22:46;3.53;;;2.58;;
76196;SDS011;64974;53.144;17.962;2023-04-24T15:25:11;3.45;;;1.83;;
76196;SDS011;64974;53.144;17.962;2023-04-24T15:27:43;4.70;;;2.22;;
76196;SDS011;64974;53.144;17.962;2023-04-24T15:30:10;4.93;;;2.63;;
76196;SDS011;64974;53.144;17.962;2023-04-24T15:32:36;5.05;;;2.50;;
76196;SDS011;64974;53.144;17.962;2023-04-24T15:35:02;4.65;;;2.42;;
76196;SDS011;64974;53.144;17.962;2023-04-24T15:37:27;4.00;;;2.78;;
76196;SDS011;64974;53.144;17.962;2023-04-24T15:39:53;7.78;;;2.90;;
76196;SDS011;64974;53.144;17.962;2023-04-24T15:42:18;3.42;;;2.35;;
76196;SDS011;64974;53.144;17.962;2023-04-24T15:44:43;5.03;;;2.67;;
76196;SDS011;64974;53.144;17.962;2023-04-24T15:47:09;6.45;;;2.85;;
76196;SDS011;64974;53.144;17.962;2023-04-24T15:49:34;3.75;;;2.55;;
76196;SDS011;64974;53.144;17.962;2023-04-24T15:51:59;4.43;;;2.38;;
76196;SDS011;64974;53.144;17.962;2023-04-24T15:54:25;3.67;;;2.35;;
76196;SDS011;64974;53.144;17.962;2023-04-24T15:56:50;5.72;;;3.00;;
76196;SDS011;64974;53.144;17.962;2023-04-24T15:59:16;6.13;;;3.53;;
76196;SDS011;64974;53.144;17.962;2023-04-24T16:01:42;4.93;;;3.30;;
76196;SDS011;64974;53.144;17.962;2023-04-24T16:04:07;6.45;;;3.83;;
76196;SDS011;64974;53.144;17.962;2023-04-24T16:06:32;6.65;;;2.88;;
76196;SDS011;64974;53.144;17.962;2023-04-24T16:08:58;5.80;;;3.22;;
76196;SDS011;64974;53.144;17.962;2023-04-24T16:11:23;5.28;;;2.88;;
76196;SDS011;64974;53.144;17.962;2023-04-24T16:13:49;6.40;;;3.75;;
76196;SDS011;64974;53.144;17.962;2023-04-24T16:16:14;7.40;;;4.10;;
76196;SDS011;64974;53.144;17.962;2023-04-24T16:18:40;9.18;;;4.00;;
76196;SDS011;64974;53.144;17.962;2023-04-24T16:21:05;6.57;;;3.72;;
76196;SDS011;64974;53.144;17.962;2023-04-24T16:23:33;4.55;;;3.05;;
76196;SDS011;64974;53.144;17.962;2023-04-24T16:25:58;6.10;;;3.07;;
76196;SDS011;64974;53.144;17.962;2023-04-24T16:28:23;4.85;;;3.00;;
76196;SDS011;64974;53.144;17.962;2023-04-24T16:30:49;7.15;;;3.78;;
76196;SDS011;64974;53.144;17.962;2023-04-24T16:33:14;6.82;;;3.55;;
76196;SDS011;64974;53.144;17.962;2023-04-24T16:35:39;7.22;;;3.38;;